sensor_id;sensor_type;location;lat;lon;timestamp;P1;durP1;ratioP1;P2;durP2;ratioP2
41514;SDS011;27247;48.020;16.720;2024-03-22T00:00:13;11.95;;;8.65;;
41514;SDS011;27247;48.020;16.720;2024-03-22T00:04:24;14.20;;;10.25;;
41514;SDS011;27247;48.020;16.720;2024-03-22T00:08:36;13.15;;;8.70;;
41514;SDS011;27247;48.020;16.720;2024-03-22T00:12:46;15.85;;;10.18;;
41514;SDS011;27247;48.020;16.720;2024-03-22T00:16:56;12.45;;;9.38;;
41514;SDS011;27247;48.020;16.720;2024-03-22T00:21:07;12.73;;;9.52;;
41514;SDS011;27247;48.020;16.720;2024-03-22T00:25:17;12.97;;;9.83;;
41514;SDS011;27247;48.020;16.720;2024-03-22T00:29:28;17.80;;;10.90;;
41514;SDS011;27247;48.020;16.720;2024-03-22T00:33:38;13.80;;;9.93;;
41514;SDS011;27247;48.020;16.720;2024-03-22T00:37:48;17.17;;;11.00;;
41514;SDS011;27247;48.020;16.720;2024-03-22T00:41:59;20.93;;;11.97;;
41514;SDS011;27247;48.020;16.720;2024-03-22T00:46:09;17.25;;;12.10;;
41514;SDS011;27247;48.020;16.720;2024-03-22T00:50:20;19.25;;;12.55;;
41514;SDS011;27247;48.020;16.720;2024-03-22T00:54:30;14.73;;;10.70;;
41514;SDS011;27247;48.020;16.720;2024-03-22T00:58:40;18.33;;;12.23;;
41514;SDS011;27247;48.020;16.720;2024-03-22T01:02:51;20.53;;;12.67;;
41514;SDS011;27247;48.020;16.720;2024-03-22T01:07:01;17.17;;;12.10;;
41514;SDS011;27247;48.020;16.720;2024-03-22T01:11:11;20.98;;;13.45;;
41514;SDS011;27247;48.020;16.720;2024-03-22T01:15:22;21.23;;;13.90;;
41514;SDS011;27247;48.020;16.720;2024-03-22T01:19:33;24.40;;;15.13;;
41514;SDS011;27247;48.020;16.720;2024-03-22T01:23:43;25.38;;;15.40;;
41514;SDS011;27247;48.020;16.720;2024-03-22T01:27:55;25.80;;;14.73;;
41514;SDS011;27247;48.020;16.720;2024-03-22T01:32:06;22.08;;;14.75;;
41514;SDS011;27247;48.020;16.720;2024-03-22T01:36:17;24.95;;;16.55;;
41514;SDS011;27247;48.020;16.720;2024-03-22T01:40:27;27.20;;;16.50;;
41514;SDS011;27247;48.020;16.720;2024-03-22T01:44:37;27.43;;;17.47;;
41514;SDS011;27247;48.020;16.720;2024-03-22T01:48:48;30.08;;;17.70;;
41514;SDS011;27247;48.020;16.720;2024-03-22T01:52:59;27.40;;;18.08;;
41514;SDS011;27247;48.020;16.720;2024-03-22T01:57:10;23.60;;;17.08;;
41514;SDS011;27247;48.020;16.720;2024-03-22T02:01:20;29.25;;;18.42;;
41514;SDS011;27247;48.020;16.720;2024-03-22T02:05:31;29.38;;;18.33;;
41514;SDS011;27247;48.020;16.720;2024-03-22T02:09:41;26.67;;;17.33;;
41514;SDS011;27247;48.020;16.720;2024-03-22T02:13:51;23.67;;;16.17;;
41514;SDS011;27247;48.020;16.720;2024-03-22T02:18:02;27.17;;;17.13;;
41514;SDS011;27247;48.020;16.720;2024-03-22T02:22:12;26.95;;;16.92;;
41514;SDS011;27247;48.020;16.720;2024-03-22T02:26:23;26.27;;;16.63;;
41514;SDS011;27247;48.020;16.720;2024-03-22T02:30:33;27.00;;;16.10;;
41514;SDS011;27247;48.020;16.720;2024-03-22T02:34:43;29.53;;;17.83;;
41514;SDS011;27247;48.020;16.720;2024-03-22T02:38:54;29.17;;;16.90;;
41514;SDS011;27247;48.020;16.720;2024-03-22T02:43:04;24.45;;;16.52;;
41514;SDS011;27247;48.020;16.720;2024-03-22T02:47:14;27.45;;;16.75;;
41514;SDS011;27247;48.020;16.720;2024-03-22T02:51:25;26.90;;;17.65;;
41514;SDS011;27247;48.020;16.720;2024-03-22T02:55:39;31.77;;;17.83;;
41514;SDS011;27247;48.020;16.720;2024-03-22T02:59:50;31.05;;;19.38;;
41514;SDS011;27247;48.020;16.720;2024-03-22T03:04:00;30.97;;;17.83;;
41514;SDS011;27247;48.020;16.720;2024-03-22T03:08:11;28.87;;;17.80;;
41514;SDS011;27247;48.020;16.720;2024-03-22T03:12:21;25.67;;;16.90;;
41514;SDS011;27247;48.020;16.720;2024-03-22T03:16:31;29.53;;;18.10;;
41514;SDS011;27247;48.020;16.720;2024-03-22T03:20:42;27.75;;;17.95;;
41514;SDS011;27247;48.020;16.720;2024-03-22T03:24:53;25.67;;;16.38;;
41514;SDS011;27247;48.020;16.720;2024-03-22T03:29:03;28.97;;;18.50;;
41514;SDS011;27247;48.020;16.720;2024-03-22T03:33:14;27.77;;;17.93;;
41514;SDS011;27247;48.020;16.720;2024-03-22T03:37:24;26.75;;;16.83;;
41514;SDS011;27247;48.020;16.720;2024-03-22T03:41:35;29.57;;;17.27;;
41514;SDS011;27247;48.020;16.720;2024-03-22T03:45:45;29.23;;;16.85;;
41514;SDS011;27247;48.020;16.720;2024-03-22T03:49:56;30.23;;;18.43;;
41514;SDS011;27247;48.020;16.720;2024-03-22T03:54:06;28.20;;;18.27;;
41514;SDS011;27247;48.020;16.720;2024-03-22T03:58:17;26.67;;;16.63;;
41514;SDS011;27247;48.020;16.720;2024-03-22T04:02:28;29.75;;;17.48;;
41514;SDS011;27247;48.020;16.720;2024-03-22T04:06:38;32.23;;;18.33;;
41514;SDS011;27247;48.020;16.720;2024-03-22T04:10:54;30.03;;;18.70;;
41514;SDS011;27247;48.020;16.720;2024-03-22T04:15:08;32.58;;;18.45;;
41514;SDS011;27247;48.020;16.720;2024-03-22T04:19:19;31.58;;;18.27;;
41514;SDS011;27247;48.020;16.720;2024-03-22T04:23:30;31.10;;;18.83;;
41514;SDS011;27247;48.020;16.720;2024-03-22T04:27:41;28.40;;;17.58;;
41514;SDS011;27247;48.020;16.720;2024-03-22T04:31:51;30.35;;;19.23;;
41514;SDS011;27247;48.020;16.720;2024-03-22T04:36:02;29.10;;;17.60;;
41514;SDS011;27247;48.020;16.720;2024-03-22T04:40:13;35.33;;;20.05;;
41514;SDS011;27247;48.020;16.720;2024-03-22T04:44:23;30.35;;;19.15;;
41514;SDS011;27247;48.020;16.720;2024-03-22T04:48:35;29.67;;;18.35;;
41514;SDS011;27247;48.020;16.720;2024-03-22T04:52:45;30.23;;;19.00;;
41514;SDS011;27247;48.020;16.720;2024-03-22T04:56:55;29.33;;;18.17;;
41514;SDS011;27247;48.020;16.720;2024-03-22T05:01:06;28.17;;;19.23;;
41514;SDS011;27247;48.020;16.720;2024-03-22T05:05:16;33.13;;;19.42;;
41514;SDS011;27247;48.020;16.720;2024-03-22T05:09:27;27.90;;;17.35;;
41514;SDS011;27247;48.020;16.720;2024-03-22T05:13:37;30.10;;;17.57;;
41514;SDS011;27247;48.020;16.720;2024-03-22T05:17:49;26.33;;;16.83;;
41514;SDS011;27247;48.020;16.720;2024-03-22T05:21:59;27.40;;;17.90;;
41514;SDS011;27247;48.020;16.720;2024-03-22T05:26:10;31.08;;;17.48;;
41514;SDS011;27247;48.020;16.720;2024-03-22T05:30:20;29.55;;;16.88;;
41514;SDS011;27247;48.020;16.720;2024-03-22T05:34:31;52.15;;;30.63;;
41514;SDS011;27247;48.020;16.720;2024-03-22T05:38:41;32.38;;;18.58;;
41514;SDS011;27247;48.020;16.720;2024-03-22T05:42:52;29.30;;;17.45;;
41514;SDS011;27247;48.020;16.720;2024-03-22T05:47:02;32.67;;;18.30;;
41514;SDS011;27247;48.020;16.720;2024-03-22T05:51:13;31.65;;;18.38;;
41514;SDS011;27247;48.020;16.720;2024-03-22T05:55:23;24.57;;;16.83;;
41514;SDS011;27247;48.020;16.720;2024-03-22T05:59:37;28.77;;;18.52;;
41514;SDS011;27247;48.020;16.720;2024-03-22T06:03:47;33.45;;;19.00;;
41514;SDS011;27247;48.020;16.720;2024-03-22T06:07:58;29.75;;;18.60;;
41514;SDS011;27247;48.020;16.720;2024-03-22T06:12:08;29.83;;;17.87;;
41514;SDS011;27247;48.020;16.720;2024-03-22T06:16:18;30.92;;;18.17;;
41514;SDS011;27247;48.020;16.720;2024-03-22T06:20:29;25.83;;;17.20;;
41514;SDS011;27247;48.020;16.720;2024-03-22T06:24:40;29.05;;;17.88;;
41514;SDS011;27247;48.020;16.720;2024-03-22T06:28:50;29.13;;;17.27;;
41514;SDS011;27247;48.020;16.720;2024-03-22T06:33:00;25.23;;;16.20;;
41514;SDS011;27247;48.020;16.720;2024-03-22T06:37:11;34.23;;;19.13;;
41514;SDS011;27247;48.020;16.720;2024-03-22T06:41:21;26.53;;;15.77;;
41514;SDS011;27247;48.020;16.720;2024-03-22T06:45:32;29.80;;;18.05;;
41514;SDS011;27247;48.020;16.720;2024-03-22T06:49:42;25.10;;;16.30;;
41514;SDS011;27247;48.020;16.720;2024-03-22T06:53:53;31.42;;;17.63;;
41514;SDS011;27247;48.020;16.720;2024-03-22T06:58:03;28.48;;;17.80;;
41514;SDS011;27247;48.020;16.720;2024-03-22T07:02:14;33.35;;;19.48;;
41514;SDS011;27247;48.020;16.720;2024-03-22T07:06:24;32.15;;;19.35;;
41514;SDS011;27247;48.020;16.720;2024-03-22T07:10:38;32.33;;;19.83;;
41514;SDS011;27247;48.020;16.720;2024-03-22T07:14:49;33.63;;;19.20;;
41514;SDS011;27247;48.020;16.720;2024-03-22T07:18:59;32.50;;;19.43;;
41514;SDS011;27247;48.020;16.720;2024-03-22T07:23:10;33.33;;;20.05;;
41514;SDS011;27247;48.020;16.720;2024-03-22T07:27:20;38.00;;;22.23;;
41514;SDS011;27247;48.020;16.720;2024-03-22T07:31:30;42.40;;;20.30;;
41514;SDS011;27247;48.020;16.720;2024-03-22T07:35:41;40.65;;;19.67;;
41514;SDS011;27247;48.020;16.720;2024-03-22T07:39:51;34.40;;;19.52;;
41514;SDS011;27247;48.020;16.720;2024-03-22T07:44:02;35.97;;;20.20;;
41514;SDS011;27247;48.020;16.720;2024-03-22T07:48:12;32.90;;;19.20;;
41514;SDS011;27247;48.020;16.720;2024-03-22T07:52:23;35.67;;;18.85;;
41514;SDS011;27247;48.020;16.720;2024-03-22T07:56:34;31.50;;;18.90;;
41514;SDS011;27247;48.020;16.720;2024-03-22T08:00:44;37.53;;;19.00;;
41514;SDS011;27247;48.020;16.720;2024-03-22T08:04:55;35.83;;;18.45;;
41514;SDS011;27247;48.020;16.720;2024-03-22T08:09:05;31.07;;;18.03;;
41514;SDS011;27247;48.020;16.720;2024-03-22T08:13:17;35.45;;;19.63;;
41514;SDS011;27247;48.020;16.720;2024-03-22T08:17:28;31.55;;;18.55;;
41514;SDS011;27247;48.020;16.720;2024-03-22T08:21:38;32.28;;;18.73;;
41514;SDS011;27247;48.020;16.720;2024-03-22T08:25:49;32.97;;;19.25;;
41514;SDS011;27247;48.020;16.720;2024-03-22T08:30:00;33.55;;;18.45;;
41514;SDS011;27247;48.020;16.720;2024-03-22T08:34:11;33.65;;;18.50;;
41514;SDS011;27247;48.020;16.720;2024-03-22T08:38:21;27.77;;;17.57;;
41514;SDS011;27247;48.020;16.720;2024-03-22T08:42:31;29.27;;;17.23;;
41514;SDS011;27247;48.020;16.720;2024-03-22T08:46:42;31.88;;;17.90;;
41514;SDS011;27247;48.020;16.720;2024-03-22T08:50:52;33.17;;;17.57;;
41514;SDS011;27247;48.020;16.720;2024-03-22T08:55:03;30.48;;;15.77;;
41514;SDS011;27247;48.020;16.720;2024-03-22T08:59:15;32.40;;;16.45;;
41514;SDS011;27247;48.020;16.720;2024-03-22T09:03:26;28.45;;;15.27;;
41514;SDS011;27247;48.020;16.720;2024-03-22T09:07:36;25.97;;;15.10;;
41514;SDS011;27247;48.020;16.720;2024-03-22T09:11:47;31.10;;;14.98;;
41514;SDS011;27247;48.020;16.720;2024-03-22T09:15:58;54.03;;;17.20;;
41514;SDS011;27247;48.020;16.720;2024-03-22T09:20:09;25.20;;;15.38;;
41514;SDS011;27247;48.020;16.720;2024-03-22T09:24:19;30.05;;;13.55;;
41514;SDS011;27247;48.020;16.720;2024-03-22T09:28:30;24.50;;;13.70;;
41514;SDS011;27247;48.020;16.720;2024-03-22T09:32:40;23.67;;;13.17;;
41514;SDS011;27247;48.020;16.720;2024-03-22T09:36:51;22.75;;;12.52;;
41514;SDS011;27247;48.020;16.720;2024-03-22T09:41:01;22.43;;;12.77;;
41514;SDS011;27247;48.020;16.720;2024-03-22T09:45:11;32.35;;;13.30;;
41514;SDS011;27247;48.020;16.720;2024-03-22T09:49:22;43.80;;;13.57;;
41514;SDS011;27247;48.020;16.720;2024-03-22T09:53:33;23.17;;;12.85;;
41514;SDS011;27247;48.020;16.720;2024-03-22T09:57:45;26.60;;;13.50;;
41514;SDS011;27247;48.020;16.720;2024-03-22T10:01:56;21.63;;;13.15;;
41514;SDS011;27247;48.020;16.720;2024-03-22T10:06:10;24.45;;;13.07;;
41514;SDS011;27247;48.020;16.720;2024-03-22T10:10:20;21.67;;;12.63;;
41514;SDS011;27247;48.020;16.720;2024-03-22T10:14:31;22.80;;;12.68;;
41514;SDS011;27247;48.020;16.720;2024-03-22T10:18:43;22.35;;;12.65;;
41514;SDS011;27247;48.020;16.720;2024-03-22T10:22:57;21.35;;;12.30;;
41514;SDS011;27247;48.020;16.720;2024-03-22T10:27:09;21.45;;;12.70;;
41514;SDS011;27247;48.020;16.720;2024-03-22T10:31:19;26.77;;;11.98;;
41514;SDS011;27247;48.020;16.720;2024-03-22T10:35:30;19.20;;;11.15;;
41514;SDS011;27247;48.020;16.720;2024-03-22T10:39:41;23.13;;;10.43;;
41514;SDS011;27247;48.020;16.720;2024-03-22T10:43:52;18.70;;;10.50;;
41514;SDS011;27247;48.020;16.720;2024-03-22T10:48:03;20.55;;;11.57;;
41514;SDS011;27247;48.020;16.720;2024-03-22T10:52:19;18.13;;;9.93;;
41514;SDS011;27247;48.020;16.720;2024-03-22T10:56:29;18.15;;;11.15;;
41514;SDS011;27247;48.020;16.720;2024-03-22T11:00:41;17.40;;;10.15;;
41514;SDS011;27247;48.020;16.720;2024-03-22T11:04:55;19.05;;;11.07;;
41514;SDS011;27247;48.020;16.720;2024-03-22T11:09:06;21.95;;;11.13;;
41514;SDS011;27247;48.020;16.720;2024-03-22T11:13:20;17.17;;;9.75;;
41514;SDS011;27247;48.020;16.720;2024-03-22T11:17:31;19.08;;;10.55;;
41514;SDS011;27247;48.020;16.720;2024-03-22T11:21:41;16.30;;;10.10;;
41514;SDS011;27247;48.020;16.720;2024-03-22T11:25:51;17.37;;;10.30;;
41514;SDS011;27247;48.020;16.720;2024-03-22T11:30:02;21.80;;;10.60;;
41514;SDS011;27247;48.020;16.720;2024-03-22T11:34:13;19.65;;;10.73;;
41514;SDS011;27247;48.020;16.720;2024-03-22T11:38:23;16.97;;;9.47;;
41514;SDS011;27247;48.020;16.720;2024-03-22T11:42:36;25.60;;;10.60;;
41514;SDS011;27247;48.020;16.720;2024-03-22T11:46:49;13.45;;;9.10;;
41514;SDS011;27247;48.020;16.720;2024-03-22T11:50:59;18.92;;;10.77;;
41514;SDS011;27247;48.020;16.720;2024-03-22T11:55:11;16.13;;;9.88;;
41514;SDS011;27247;48.020;16.720;2024-03-22T11:59:21;14.95;;;8.40;;
41514;SDS011;27247;48.020;16.720;2024-03-22T12:03:32;15.30;;;7.83;;
41514;SDS011;27247;48.020;16.720;2024-03-22T12:07:42;15.03;;;8.80;;
41514;SDS011;27247;48.020;16.720;2024-03-22T12:11:54;17.97;;;9.17;;
41514;SDS011;27247;48.020;16.720;2024-03-22T12:16:05;15.30;;;8.73;;
41514;SDS011;27247;48.020;16.720;2024-03-22T12:20:17;15.90;;;8.32;;
41514;SDS011;27247;48.020;16.720;2024-03-22T12:24:27;15.30;;;7.90;;
41514;SDS011;27247;48.020;16.720;2024-03-22T12:28:37;17.03;;;9.20;;
41514;SDS011;27247;48.020;16.720;2024-03-22T12:32:48;12.90;;;8.30;;
41514;SDS011;27247;48.020;16.720;2024-03-22T12:36:58;13.23;;;8.60;;
41514;SDS011;27247;48.020;16.720;2024-03-22T12:41:10;13.77;;;8.73;;
41514;SDS011;27247;48.020;16.720;2024-03-22T12:45:20;11.77;;;8.70;;
41514;SDS011;27247;48.020;16.720;2024-03-22T12:49:30;13.63;;;9.13;;
41514;SDS011;27247;48.020;16.720;2024-03-22T12:53:42;15.20;;;8.25;;
41514;SDS011;27247;48.020;16.720;2024-03-22T12:57:52;16.92;;;7.75;;
41514;SDS011;27247;48.020;16.720;2024-03-22T13:02:02;10.52;;;6.75;;
41514;SDS011;27247;48.020;16.720;2024-03-22T13:06:14;10.10;;;6.85;;
41514;SDS011;27247;48.020;16.720;2024-03-22T13:10:25;9.13;;;6.43;;
41514;SDS011;27247;48.020;16.720;2024-03-22T13:14:36;8.93;;;6.00;;
41514;SDS011;27247;48.020;16.720;2024-03-22T13:18:46;10.48;;;6.18;;
41514;SDS011;27247;48.020;16.720;2024-03-22T13:22:57;10.17;;;6.60;;
41514;SDS011;27247;48.020;16.720;2024-03-22T13:27:07;11.70;;;5.82;;
41514;SDS011;27247;48.020;16.720;2024-03-22T13:31:18;63.20;;;9.35;;
41514;SDS011;27247;48.020;16.720;2024-03-22T13:35:28;8.63;;;5.93;;
41514;SDS011;27247;48.020;16.720;2024-03-22T13:39:38;10.30;;;5.45;;
41514;SDS011;27247;48.020;16.720;2024-03-22T13:43:49;10.63;;;5.57;;
41514;SDS011;27247;48.020;16.720;2024-03-22T13:47:59;15.47;;;5.77;;
41514;SDS011;27247;48.020;16.720;2024-03-22T13:52:10;8.60;;;6.15;;
41514;SDS011;27247;48.020;16.720;2024-03-22T13:56:20;8.30;;;5.90;;
41514;SDS011;27247;48.020;16.720;2024-03-22T14:00:31;8.10;;;5.37;;
41514;SDS011;27247;48.020;16.720;2024-03-22T14:04:41;8.80;;;5.72;;
41514;SDS011;27247;48.020;16.720;2024-03-22T14:08:51;8.37;;;5.67;;
41514;SDS011;27247;48.020;16.720;2024-03-22T14:13:04;8.63;;;5.07;;
41514;SDS011;27247;48.020;16.720;2024-03-22T14:17:17;7.80;;;4.50;;
41514;SDS011;27247;48.020;16.720;2024-03-22T14:21:28;8.10;;;4.47;;
41514;SDS011;27247;48.020;16.720;2024-03-22T14:25:38;8.47;;;4.57;;
41514;SDS011;27247;48.020;16.720;2024-03-22T14:29:50;9.20;;;4.72;;
41514;SDS011;27247;48.020;16.720;2024-03-22T14:34:01;7.80;;;3.85;;
41514;SDS011;27247;48.020;16.720;2024-03-22T14:38:12;7.07;;;4.13;;
41514;SDS011;27247;48.020;16.720;2024-03-22T14:42:22;7.73;;;4.87;;
41514;SDS011;27247;48.020;16.720;2024-03-22T14:46:32;9.37;;;5.63;;
41514;SDS011;27247;48.020;16.720;2024-03-22T14:50:43;7.20;;;5.03;;
41514;SDS011;27247;48.020;16.720;2024-03-22T14:54:54;7.07;;;5.07;;
41514;SDS011;27247;48.020;16.720;2024-03-22T14:59:04;7.90;;;4.40;;
41514;SDS011;27247;48.020;16.720;2024-03-22T15:03:14;6.03;;;4.13;;
41514;SDS011;27247;48.020;16.720;2024-03-22T15:07:25;7.47;;;3.83;;
41514;SDS011;27247;48.020;16.720;2024-03-22T15:11:35;7.93;;;4.20;;
41514;SDS011;27247;48.020;16.720;2024-03-22T15:15:55;7.93;;;4.22;;
41514;SDS011;27247;48.020;16.720;2024-03-22T15:20:07;12.48;;;5.63;;
41514;SDS011;27247;48.020;16.720;2024-03-22T15:24:19;8.13;;;4.38;;
41514;SDS011;27247;48.020;16.720;2024-03-22T15:28:29;4.90;;;3.70;;
41514;SDS011;27247;48.020;16.720;2024-03-22T15:32:40;12.00;;;4.37;;
41514;SDS011;27247;48.020;16.720;2024-03-22T15:36:51;6.60;;;4.05;;
41514;SDS011;27247;48.020;16.720;2024-03-22T15:41:01;9.38;;;3.55;;
41514;SDS011;27247;48.020;16.720;2024-03-22T15:45:11;7.05;;;3.83;;
41514;SDS011;27247;48.020;16.720;2024-03-22T15:49:22;7.60;;;4.20;;
41514;SDS011;27247;48.020;16.720;2024-03-22T15:53:33;8.00;;;4.03;;
41514;SDS011;27247;48.020;16.720;2024-03-22T15:57:43;8.33;;;4.27;;
41514;SDS011;27247;48.020;16.720;2024-03-22T16:01:53;6.63;;;3.60;;
41514;SDS011;27247;48.020;16.720;2024-03-22T16:06:04;5.07;;;3.50;;
41514;SDS011;27247;48.020;16.720;2024-03-22T16:10:14;9.13;;;3.58;;
41514;SDS011;27247;48.020;16.720;2024-03-22T16:14:25;6.20;;;3.72;;
41514;SDS011;27247;48.020;16.720;2024-03-22T16:18:35;17.00;;;4.57;;
41514;SDS011;27247;48.020;16.720;2024-03-22T16:22:46;13.65;;;5.25;;
41514;SDS011;27247;48.020;16.720;2024-03-22T16:26:57;6.90;;;4.97;;
41514;SDS011;27247;48.020;16.720;2024-03-22T16:31:07;9.40;;;5.40;;
41514;SDS011;27247;48.020;16.720;2024-03-22T16:35:17;22.37;;;11.33;;
41514;SDS011;27247;48.020;16.720;2024-03-22T16:39:28;15.13;;;9.00;;
41514;SDS011;27247;48.020;16.720;2024-03-22T16:43:39;13.83;;;7.97;;
41514;SDS011;27247;48.020;16.720;2024-03-22T16:47:52;7.65;;;4.57;;
41514;SDS011;27247;48.020;16.720;2024-03-22T16:52:03;8.93;;;4.57;;
41514;SDS011;27247;48.020;16.720;2024-03-22T16:56:13;5.88;;;3.90;;
41514;SDS011;27247;48.020;16.720;2024-03-22T17:00:23;4.93;;;3.67;;
41514;SDS011;27247;48.020;16.720;2024-03-22T17:04:34;8.05;;;4.32;;
41514;SDS011;27247;48.020;16.720;2024-03-22T17:08:44;8.43;;;5.13;;
41514;SDS011;27247;48.020;16.720;2024-03-22T17:12:54;11.27;;;5.60;;
41514;SDS011;27247;48.020;16.720;2024-03-22T17:17:05;8.85;;;4.60;;
41514;SDS011;27247;48.020;16.720;2024-03-22T17:21:15;9.70;;;4.80;;
41514;SDS011;27247;48.020;16.720;2024-03-22T17:25:26;10.52;;;4.75;;
41514;SDS011;27247;48.020;16.720;2024-03-22T17:29:36;11.43;;;5.20;;
41514;SDS011;27247;48.020;16.720;2024-03-22T17:33:47;9.27;;;5.30;;
41514;SDS011;27247;48.020;16.720;2024-03-22T17:37:57;11.87;;;5.33;;
41514;SDS011;27247;48.020;16.720;2024-03-22T17:42:08;7.45;;;4.13;;
41514;SDS011;27247;48.020;16.720;2024-03-22T17:46:18;9.07;;;4.55;;
41514;SDS011;27247;48.020;16.720;2024-03-22T17:50:30;9.52;;;4.20;;
41514;SDS011;27247;48.020;16.720;2024-03-22T17:54:40;6.07;;;3.83;;
41514;SDS011;27247;48.020;16.720;2024-03-22T17:58:50;8.23;;;4.15;;
41514;SDS011;27247;48.020;16.720;2024-03-22T18:03:01;4.77;;;3.43;;
41514;SDS011;27247;48.020;16.720;2024-03-22T18:07:12;7.27;;;4.80;;
41514;SDS011;27247;48.020;16.720;2024-03-22T18:11:22;8.38;;;5.07;;
41514;SDS011;27247;48.020;16.720;2024-03-22T18:15:33;27.17;;;18.90;;
41514;SDS011;27247;48.020;16.720;2024-03-22T18:19:43;21.33;;;13.60;;
41514;SDS011;27247;48.020;16.720;2024-03-22T18:23:54;12.25;;;10.30;;
41514;SDS011;27247;48.020;16.720;2024-03-22T18:28:05;12.88;;;6.45;;
41514;SDS011;27247;48.020;16.720;2024-03-22T18:32:15;7.40;;;4.57;;
41514;SDS011;27247;48.020;16.720;2024-03-22T18:36:26;6.87;;;4.10;;
41514;SDS011;27247;48.020;16.720;2024-03-22T18:40:36;6.90;;;4.47;;
41514;SDS011;27247;48.020;16.720;2024-03-22T18:44:46;9.02;;;4.65;;
41514;SDS011;27247;48.020;16.720;2024-03-22T18:48:57;6.90;;;4.57;;
41514;SDS011;27247;48.020;16.720;2024-03-22T18:53:08;5.90;;;4.90;;
41514;SDS011;27247;48.020;16.720;2024-03-22T18:57:19;6.93;;;4.45;;
41514;SDS011;27247;48.020;16.720;2024-03-22T19:01:29;6.40;;;4.97;;
41514;SDS011;27247;48.020;16.720;2024-03-22T19:05:39;8.30;;;5.32;;
41514;SDS011;27247;48.020;16.720;2024-03-22T19:09:50;9.45;;;4.78;;
41514;SDS011;27247;48.020;16.720;2024-03-22T19:14:00;6.40;;;4.97;;
41514;SDS011;27247;48.020;16.720;2024-03-22T19:18:10;6.50;;;4.53;;
41514;SDS011;27247;48.020;16.720;2024-03-22T19:22:21;8.00;;;4.30;;
41514;SDS011;27247;48.020;16.720;2024-03-22T19:26:32;7.88;;;5.55;;
41514;SDS011;27247;48.020;16.720;2024-03-22T19:30:43;7.93;;;4.93;;
41514;SDS011;27247;48.020;16.720;2024-03-22T19:34:53;9.32;;;5.15;;
41514;SDS011;27247;48.020;16.720;2024-03-22T19:39:04;20.77;;;11.07;;
41514;SDS011;27247;48.020;16.720;2024-03-22T19:43:21;17.90;;;9.10;;
41514;SDS011;27247;48.020;16.720;2024-03-22T19:47:31;15.55;;;7.30;;
41514;SDS011;27247;48.020;16.720;2024-03-22T19:51:42;10.13;;;6.70;;
41514;SDS011;27247;48.020;16.720;2024-03-22T19:55:52;10.60;;;7.07;;
41514;SDS011;27247;48.020;16.720;2024-03-22T20:00:03;13.23;;;7.97;;
41514;SDS011;27247;48.020;16.720;2024-03-22T20:04:14;6.32;;;5.03;;
41514;SDS011;27247;48.020;16.720;2024-03-22T20:08:24;9.25;;;5.65;;
41514;SDS011;27247;48.020;16.720;2024-03-22T20:12:35;9.73;;;6.13;;
41514;SDS011;27247;48.020;16.720;2024-03-22T20:16:45;9.55;;;5.38;;
41514;SDS011;27247;48.020;16.720;2024-03-22T20:20:55;6.25;;;4.18;;
41514;SDS011;27247;48.020;16.720;2024-03-22T20:25:06;6.05;;;5.03;;
41514;SDS011;27247;48.020;16.720;2024-03-22T20:29:17;6.80;;;4.80;;
41514;SDS011;27247;48.020;16.720;2024-03-22T20:33:28;12.00;;;5.78;;
